sensor_id;sensor_type;location;lat;lon;timestamp;P1;durP1;ratioP1;P2;durP2;ratioP2
76202;SDS011;64985;46.364;17.008;2023-09-19T00:00:14;16.85;;;6.65;;
76202;SDS011;64985;46.364;17.008;2023-09-19T00:03:17;16.83;;;7.78;;
76202;SDS011;64985;46.364;17.008;2023-09-19T00:06:19;17.60;;;7.53;;
76202;SDS011;64985;46.364;17.008;2023-09-19T00:09:21;15.80;;;7.13;;
76202;SDS011;64985;46.364;17.008;2023-09-19T00:12:26;20.55;;;7.53;;
76202;SDS011;64985;46.364;17.008;2023-09-19T00:15:29;15.88;;;7.70;;
76202;SDS011;64985;46.364;17.008;2023-09-19T00:18:31;18.08;;;8.30;;
76202;SDS011;64985;46.364;17.008;2023-09-19T00:21:34;17.27;;;8.20;;
76202;SDS011;64985;46.364;17.008;2023-09-19T00:24:39;16.30;;;8.52;;
76202;SDS011;64985;46.364;17.008;2023-09-19T00:27:42;17.23;;;9.30;;
76202;SDS011;64985;46.364;17.008;2023-09-19T00:30:46;17.05;;;8.27;;
76202;SDS011;64985;46.364;17.008;2023-09-19T00:33:52;17.88;;;7.78;;
76202;SDS011;64985;46.364;17.008;2023-09-19T00:36:54;20.88;;;8.70;;
76202;SDS011;64985;46.364;17.008;2023-09-19T00:39:57;19.02;;;8.65;;
76202;SDS011;64985;46.364;17.008;2023-09-19T00:42:59;21.35;;;9.00;;
76202;SDS011;64985;46.364;17.008;2023-09-19T00:46:01;20.52;;;8.63;;
76202;SDS011;64985;46.364;17.008;2023-09-19T00:49:06;19.42;;;8.15;;
76202;SDS011;64985;46.364;17.008;2023-09-19T00:52:11;17.48;;;8.07;;
76202;SDS011;64985;46.364;17.008;2023-09-19T00:55:14;19.23;;;7.65;;
76202;SDS011;64985;46.364;17.008;2023-09-19T00:58:17;20.27;;;8.07;;
76202;SDS011;64985;46.364;17.008;2023-09-19T01:01:21;21.15;;;8.25;;
76202;SDS011;64985;46.364;17.008;2023-09-19T01:04:23;21.55;;;8.20;;
76202;SDS011;64985;46.364;17.008;2023-09-19T01:07:27;22.20;;;7.70;;
76202;SDS011;64985;46.364;17.008;2023-09-19T01:10:31;20.10;;;8.15;;
76202;SDS011;64985;46.364;17.008;2023-09-19T01:13:39;18.52;;;8.20;;
76202;SDS011;64985;46.364;17.008;2023-09-19T01:16:48;19.67;;;8.27;;
76202;SDS011;64985;46.364;17.008;2023-09-19T01:20:06;16.58;;;8.32;;
76202;SDS011;64985;46.364;17.008;2023-09-19T01:23:20;18.10;;;7.75;;
76202;SDS011;64985;46.364;17.008;2023-09-19T01:26:56;14.05;;;7.88;;
76202;SDS011;64985;46.364;17.008;2023-09-19T01:30:14;22.77;;;8.27;;
76202;SDS011;64985;46.364;17.008;2023-09-19T01:33:19;21.10;;;8.68;;
76202;SDS011;64985;46.364;17.008;2023-09-19T01:36:22;17.02;;;8.27;;
76202;SDS011;64985;46.364;17.008;2023-09-19T01:39:25;21.05;;;8.50;;
76202;SDS011;64985;46.364;17.008;2023-09-19T01:42:29;18.30;;;8.45;;
76202;SDS011;64985;46.364;17.008;2023-09-19T01:45:34;20.13;;;8.23;;
76202;SDS011;64985;46.364;17.008;2023-09-19T01:48:39;18.88;;;7.78;;
76202;SDS011;64985;46.364;17.008;2023-09-19T01:55:18;23.00;;;8.10;;
76202;SDS011;64985;46.364;17.008;2023-09-19T01:58:22;16.88;;;7.45;;
76202;SDS011;64985;46.364;17.008;2023-09-19T02:01:36;19.83;;;7.38;;
76202;SDS011;64985;46.364;17.008;2023-09-19T02:04:40;17.58;;;7.90;;
76202;SDS011;64985;46.364;17.008;2023-09-19T02:07:42;14.80;;;7.40;;
76202;SDS011;64985;46.364;17.008;2023-09-19T02:10:45;26.27;;;7.47;;
76202;SDS011;64985;46.364;17.008;2023-09-19T02:13:51;22.05;;;7.20;;
76202;SDS011;64985;46.364;17.008;2023-09-19T02:16:56;17.40;;;6.80;;
76202;SDS011;64985;46.364;17.008;2023-09-19T02:19:59;21.55;;;7.38;;
76202;SDS011;64985;46.364;17.008;2023-09-19T02:23:02;18.08;;;7.47;;
76202;SDS011;64985;46.364;17.008;2023-09-19T02:26:05;20.60;;;7.13;;
76202;SDS011;64985;46.364;17.008;2023-09-19T02:29:07;16.63;;;7.38;;
76202;SDS011;64985;46.364;17.008;2023-09-19T02:32:09;20.52;;;6.45;;
76202;SDS011;64985;46.364;17.008;2023-09-19T02:35:12;15.32;;;6.90;;
76202;SDS011;64985;46.364;17.008;2023-09-19T02:38:16;19.58;;;7.20;;
76202;SDS011;64985;46.364;17.008;2023-09-19T02:41:23;14.75;;;7.28;;
76202;SDS011;64985;46.364;17.008;2023-09-19T02:44:25;18.92;;;7.07;;
76202;SDS011;64985;46.364;17.008;2023-09-19T02:47:28;14.23;;;6.65;;
76202;SDS011;64985;46.364;17.008;2023-09-19T02:50:30;19.75;;;6.72;;
76202;SDS011;64985;46.364;17.008;2023-09-19T02:53:33;23.13;;;7.05;;
76202;SDS011;64985;46.364;17.008;2023-09-19T02:56:35;17.73;;;7.07;;
76202;SDS011;64985;46.364;17.008;2023-09-19T02:59:38;16.55;;;6.43;;
76202;SDS011;64985;46.364;17.008;2023-09-19T03:02:42;21.95;;;6.95;;
76202;SDS011;64985;46.364;17.008;2023-09-19T03:05:46;16.67;;;6.82;;
76202;SDS011;64985;46.364;17.008;2023-09-19T03:08:50;17.05;;;6.57;;
76202;SDS011;64985;46.364;17.008;2023-09-19T03:11:53;15.23;;;6.57;;
76202;SDS011;64985;46.364;17.008;2023-09-19T03:14:56;15.13;;;6.60;;
76202;SDS011;64985;46.364;17.008;2023-09-19T03:17:58;16.52;;;6.60;;
76202;SDS011;64985;46.364;17.008;2023-09-19T03:21:01;17.50;;;7.07;;
76202;SDS011;64985;46.364;17.008;2023-09-19T03:24:04;13.60;;;6.82;;
76202;SDS011;64985;46.364;17.008;2023-09-19T03:27:08;17.08;;;6.85;;
76202;SDS011;64985;46.364;17.008;2023-09-19T03:30:12;18.45;;;6.63;;
76202;SDS011;64985;46.364;17.008;2023-09-19T03:33:15;17.33;;;6.63;;
76202;SDS011;64985;46.364;17.008;2023-09-19T03:36:18;19.58;;;6.28;;
76202;SDS011;64985;46.364;17.008;2023-09-19T03:39:20;17.13;;;6.70;;
76202;SDS011;64985;46.364;17.008;2023-09-19T03:42:22;15.13;;;6.78;;
76202;SDS011;64985;46.364;17.008;2023-09-19T03:45:27;14.10;;;6.78;;
76202;SDS011;64985;46.364;17.008;2023-09-19T03:48:29;16.98;;;7.03;;
76202;SDS011;64985;46.364;17.008;2023-09-19T03:51:32;18.40;;;6.70;;
76202;SDS011;64985;46.364;17.008;2023-09-19T03:54:36;13.05;;;6.90;;
76202;SDS011;64985;46.364;17.008;2023-09-19T03:57:38;20.42;;;6.57;;
76202;SDS011;64985;46.364;17.008;2023-09-19T04:00:41;17.13;;;7.03;;
76202;SDS011;64985;46.364;17.008;2023-09-19T04:03:46;18.10;;;6.57;;
76202;SDS011;64985;46.364;17.008;2023-09-19T04:06:50;17.70;;;6.50;;
76202;SDS011;64985;46.364;17.008;2023-09-19T04:09:55;15.23;;;6.28;;
76202;SDS011;64985;46.364;17.008;2023-09-19T04:12:57;15.48;;;6.70;;
76202;SDS011;64985;46.364;17.008;2023-09-19T04:15:59;18.88;;;6.55;;
76202;SDS011;64985;46.364;17.008;2023-09-19T04:19:02;14.23;;;6.72;;
76202;SDS011;64985;46.364;17.008;2023-09-19T04:22:05;17.30;;;6.78;;
76202;SDS011;64985;46.364;17.008;2023-09-19T04:25:07;14.95;;;6.63;;
76202;SDS011;64985;46.364;17.008;2023-09-19T04:28:10;16.38;;;6.40;;
76202;SDS011;64985;46.364;17.008;2023-09-19T04:31:12;13.32;;;6.00;;
76202;SDS011;64985;46.364;17.008;2023-09-19T04:34:16;22.10;;;6.55;;
76202;SDS011;64985;46.364;17.008;2023-09-19T04:37:18;13.85;;;6.85;;
76202;SDS011;64985;46.364;17.008;2023-09-19T04:40:21;15.10;;;6.55;;
76202;SDS011;64985;46.364;17.008;2023-09-19T04:43:24;18.67;;;7.15;;
76202;SDS011;64985;46.364;17.008;2023-09-19T04:46:27;21.10;;;7.25;;
76202;SDS011;64985;46.364;17.008;2023-09-19T04:49:29;20.83;;;7.15;;
76202;SDS011;64985;46.364;17.008;2023-09-19T04:52:32;22.25;;;7.90;;
76202;SDS011;64985;46.364;17.008;2023-09-19T04:55:34;18.42;;;8.38;;
76202;SDS011;64985;46.364;17.008;2023-09-19T04:58:37;20.30;;;8.40;;
76202;SDS011;64985;46.364;17.008;2023-09-19T05:01:40;16.55;;;8.57;;
76202;SDS011;64985;46.364;17.008;2023-09-19T05:04:42;21.55;;;8.68;;
76202;SDS011;64985;46.364;17.008;2023-09-19T05:07:45;16.65;;;9.25;;
76202;SDS011;64985;46.364;17.008;2023-09-19T05:10:48;17.30;;;9.32;;
76202;SDS011;64985;46.364;17.008;2023-09-19T05:13:50;22.55;;;9.20;;
76202;SDS011;64985;46.364;17.008;2023-09-19T05:16:54;19.17;;;9.30;;
76202;SDS011;64985;46.364;17.008;2023-09-19T05:19:57;19.20;;;10.18;;
76202;SDS011;64985;46.364;17.008;2023-09-19T05:23:00;25.20;;;10.95;;
76202;SDS011;64985;46.364;17.008;2023-09-19T05:26:04;23.30;;;9.65;;
76202;SDS011;64985;46.364;17.008;2023-09-19T05:29:06;22.88;;;8.80;;
76202;SDS011;64985;46.364;17.008;2023-09-19T05:32:11;13.50;;;6.72;;
76202;SDS011;64985;46.364;17.008;2023-09-19T05:35:13;14.32;;;7.30;;
76202;SDS011;64985;46.364;17.008;2023-09-19T05:38:15;14.70;;;5.53;;
76202;SDS011;64985;46.364;17.008;2023-09-19T05:41:20;9.93;;;5.13;;
76202;SDS011;64985;46.364;17.008;2023-09-19T05:44:23;6.20;;;3.53;;
76202;SDS011;64985;46.364;17.008;2023-09-19T05:47:25;8.38;;;3.28;;
76202;SDS011;64985;46.364;17.008;2023-09-19T05:50:27;6.70;;;2.90;;
76202;SDS011;64985;46.364;17.008;2023-09-19T05:53:30;6.95;;;2.60;;
76202;SDS011;64985;46.364;17.008;2023-09-19T05:56:32;8.73;;;2.05;;
76202;SDS011;64985;46.364;17.008;2023-09-19T05:59:34;5.07;;;2.08;;
76202;SDS011;64985;46.364;17.008;2023-09-19T06:02:37;3.78;;;2.10;;
76202;SDS011;64985;46.364;17.008;2023-09-19T06:05:39;3.83;;;2.25;;
76202;SDS011;64985;46.364;17.008;2023-09-19T06:08:43;6.20;;;2.10;;
76202;SDS011;64985;46.364;17.008;2023-09-19T06:11:46;12.90;;;2.80;;
76202;SDS011;64985;46.364;17.008;2023-09-19T06:14:48;13.77;;;2.88;;
76202;SDS011;64985;46.364;17.008;2023-09-19T06:17:54;4.50;;;2.50;;
76202;SDS011;64985;46.364;17.008;2023-09-19T06:20:57;7.90;;;2.50;;
76202;SDS011;64985;46.364;17.008;2023-09-19T06:23:59;6.57;;;2.30;;
76202;SDS011;64985;46.364;17.008;2023-09-19T06:27:02;5.22;;;2.40;;
76202;SDS011;64985;46.364;17.008;2023-09-19T06:30:06;3.55;;;2.10;;
76202;SDS011;64985;46.364;17.008;2023-09-19T06:33:09;7.53;;;2.20;;
76202;SDS011;64985;46.364;17.008;2023-09-19T06:36:17;8.43;;;2.40;;
76202;SDS011;64985;46.364;17.008;2023-09-19T06:39:21;5.28;;;2.10;;
76202;SDS011;64985;46.364;17.008;2023-09-19T06:42:24;5.40;;;2.13;;
76202;SDS011;64985;46.364;17.008;2023-09-19T06:45:28;5.68;;;2.30;;
76202;SDS011;64985;46.364;17.008;2023-09-19T06:48:30;7.30;;;2.50;;
76202;SDS011;64985;46.364;17.008;2023-09-19T06:51:33;5.68;;;2.28;;
76202;SDS011;64985;46.364;17.008;2023-09-19T06:54:36;7.28;;;2.53;;
76202;SDS011;64985;46.364;17.008;2023-09-19T06:57:39;5.28;;;2.67;;
76202;SDS011;64985;46.364;17.008;2023-09-19T07:00:47;9.55;;;2.78;;
76202;SDS011;64985;46.364;17.008;2023-09-19T07:03:51;9.07;;;2.58;;
76202;SDS011;64985;46.364;17.008;2023-09-19T07:06:55;8.65;;;2.70;;
76202;SDS011;64985;46.364;17.008;2023-09-19T07:09:57;5.28;;;2.20;;
76202;SDS011;64985;46.364;17.008;2023-09-19T07:13:00;7.10;;;2.47;;
76202;SDS011;64985;46.364;17.008;2023-09-19T07:16:03;4.60;;;2.30;;
76202;SDS011;64985;46.364;17.008;2023-09-19T07:19:06;5.85;;;2.25;;
76202;SDS011;64985;46.364;17.008;2023-09-19T07:22:09;4.30;;;2.20;;
76202;SDS011;64985;46.364;17.008;2023-09-19T07:25:11;6.95;;;2.08;;
76202;SDS011;64985;46.364;17.008;2023-09-19T07:28:16;5.93;;;2.10;;
76202;SDS011;64985;46.364;17.008;2023-09-19T07:31:18;6.68;;;1.95;;
76202;SDS011;64985;46.364;17.008;2023-09-19T07:34:20;2.70;;;2.08;;
76202;SDS011;64985;46.364;17.008;2023-09-19T07:37:24;6.07;;;1.90;;
76202;SDS011;64985;46.364;17.008;2023-09-19T07:40:27;4.07;;;1.73;;
76202;SDS011;64985;46.364;17.008;2023-09-19T07:43:31;3.40;;;1.88;;
76202;SDS011;64985;46.364;17.008;2023-09-19T07:46:33;4.38;;;2.10;;
76202;SDS011;64985;46.364;17.008;2023-09-19T07:49:35;3.05;;;1.50;;
76202;SDS011;64985;46.364;17.008;2023-09-19T07:52:37;4.75;;;2.20;;
76202;SDS011;64985;46.364;17.008;2023-09-19T07:55:41;4.10;;;2.20;;
76202;SDS011;64985;46.364;17.008;2023-09-19T07:58:44;4.93;;;2.00;;
76202;SDS011;64985;46.364;17.008;2023-09-19T08:01:47;5.78;;;1.70;;
76202;SDS011;64985;46.364;17.008;2023-09-19T08:04:49;4.85;;;1.70;;
76202;SDS011;64985;46.364;17.008;2023-09-19T08:07:54;3.03;;;1.50;;
76202;SDS011;64985;46.364;17.008;2023-09-19T08:10:58;4.35;;;1.52;;
76202;SDS011;64985;46.364;17.008;2023-09-19T08:14:00;3.97;;;1.60;;
76202;SDS011;64985;46.364;17.008;2023-09-19T08:17:03;3.75;;;1.63;;
76202;SDS011;64985;46.364;17.008;2023-09-19T08:20:10;3.13;;;1.50;;
76202;SDS011;64985;46.364;17.008;2023-09-19T08:23:20;5.72;;;1.60;;
76202;SDS011;64985;46.364;17.008;2023-09-19T08:26:23;2.88;;;1.70;;
76202;SDS011;64985;46.364;17.008;2023-09-19T08:29:26;5.60;;;2.10;;
76202;SDS011;64985;46.364;17.008;2023-09-19T08:32:29;6.10;;;2.13;;
76202;SDS011;64985;46.364;17.008;2023-09-19T08:35:32;5.10;;;1.95;;
76202;SDS011;64985;46.364;17.008;2023-09-19T08:38:35;6.60;;;1.40;;
76202;SDS011;64985;46.364;17.008;2023-09-19T08:41:37;2.20;;;1.45;;
76202;SDS011;64985;46.364;17.008;2023-09-19T08:44:39;4.38;;;1.45;;
76202;SDS011;64985;46.364;17.008;2023-09-19T08:47:46;2.95;;;1.40;;
76202;SDS011;64985;46.364;17.008;2023-09-19T08:51:16;3.63;;;1.30;;
76202;SDS011;64985;46.364;17.008;2023-09-19T08:54:33;4.30;;;1.40;;
76202;SDS011;64985;46.364;17.008;2023-09-19T08:57:41;1.90;;;1.50;;
76202;SDS011;64985;46.364;17.008;2023-09-19T09:00:47;4.25;;;1.80;;
76202;SDS011;64985;46.364;17.008;2023-09-19T09:03:55;3.17;;;1.75;;
76202;SDS011;64985;46.364;17.008;2023-09-19T09:06:58;2.85;;;1.80;;
76202;SDS011;64985;46.364;17.008;2023-09-19T09:10:02;5.40;;;2.45;;
76202;SDS011;64985;46.364;17.008;2023-09-19T09:13:05;3.95;;;2.20;;
76202;SDS011;64985;46.364;17.008;2023-09-19T09:16:08;3.90;;;2.28;;
76202;SDS011;64985;46.364;17.008;2023-09-19T09:19:11;4.53;;;2.58;;
76202;SDS011;64985;46.364;17.008;2023-09-19T09:22:14;3.53;;;2.13;;
76202;SDS011;64985;46.364;17.008;2023-09-19T09:25:19;7.05;;;1.98;;
76202;SDS011;64985;46.364;17.008;2023-09-19T09:28:26;3.97;;;2.00;;
76202;SDS011;64985;46.364;17.008;2023-09-19T09:31:30;4.63;;;1.70;;
76202;SDS011;64985;46.364;17.008;2023-09-19T09:34:33;2.58;;;1.50;;
76202;SDS011;64985;46.364;17.008;2023-09-19T09:37:35;1.60;;;1.35;;
76202;SDS011;64985;46.364;17.008;2023-09-19T09:40:47;3.17;;;1.55;;
76202;SDS011;64985;46.364;17.008;2023-09-19T09:43:55;4.00;;;1.70;;
76202;SDS011;64985;46.364;17.008;2023-09-19T09:47:00;3.08;;;1.50;;
76202;SDS011;64985;46.364;17.008;2023-09-19T09:50:35;5.10;;;1.77;;
76202;SDS011;64985;46.364;17.008;2023-09-19T09:53:47;1.98;;;1.52;;
76202;SDS011;64985;46.364;17.008;2023-09-19T09:56:56;4.70;;;2.13;;
76202;SDS011;64985;46.364;17.008;2023-09-19T10:00:03;3.20;;;1.55;;
76202;SDS011;64985;46.364;17.008;2023-09-19T10:03:32;1.70;;;1.30;;
76202;SDS011;64985;46.364;17.008;2023-09-19T10:06:41;5.53;;;1.40;;
76202;SDS011;64985;46.364;17.008;2023-09-19T10:09:49;4.47;;;1.27;;
76202;SDS011;64985;46.364;17.008;2023-09-19T10:12:53;4.75;;;1.17;;
76202;SDS011;64985;46.364;17.008;2023-09-19T10:16:06;2.42;;;1.20;;
76202;SDS011;64985;46.364;17.008;2023-09-19T10:19:14;3.53;;;1.30;;
76202;SDS011;64985;46.364;17.008;2023-09-19T10:22:27;2.60;;;1.25;;
76202;SDS011;64985;46.364;17.008;2023-09-19T10:25:32;1.80;;;1.10;;
76202;SDS011;64985;46.364;17.008;2023-09-19T10:28:38;1.20;;;1.00;;
76202;SDS011;64985;46.364;17.008;2023-09-19T10:31:41;2.75;;;1.15;;
76202;SDS011;64985;46.364;17.008;2023-09-19T10:34:49;2.97;;;1.13;;
76202;SDS011;64985;46.364;17.008;2023-09-19T10:37:52;1.75;;;1.20;;
76202;SDS011;64985;46.364;17.008;2023-09-19T10:40:58;2.22;;;1.20;;
76202;SDS011;64985;46.364;17.008;2023-09-19T10:44:03;2.28;;;1.10;;
76202;SDS011;64985;46.364;17.008;2023-09-19T10:47:11;3.17;;;1.25;;
76202;SDS011;64985;46.364;17.008;2023-09-19T10:50:21;1.27;;;1.00;;
76202;SDS011;64985;46.364;17.008;2023-09-19T10:59:34;3.13;;;1.20;;
76202;SDS011;64985;46.364;17.008;2023-09-19T11:02:36;3.33;;;1.20;;
76202;SDS011;64985;46.364;17.008;2023-09-19T11:05:39;2.83;;;1.20;;
76202;SDS011;64985;46.364;17.008;2023-09-19T11:11:58;3.60;;;1.10;;
76202;SDS011;64985;46.364;17.008;2023-09-19T11:15:02;2.55;;;1.23;;
76202;SDS011;64985;46.364;17.008;2023-09-19T11:18:50;5.28;;;1.40;;
76202;SDS011;64985;46.364;17.008;2023-09-19T11:21:51;3.22;;;1.20;;
76202;SDS011;64985;46.364;17.008;2023-09-19T11:24:56;1.98;;;1.10;;
76202;SDS011;64985;46.364;17.008;2023-09-19T11:28:41;1.98;;;1.17;;
76202;SDS011;64985;46.364;17.008;2023-09-19T11:31:43;4.00;;;1.40;;
76202;SDS011;64985;46.364;17.008;2023-09-19T11:34:46;2.70;;;1.20;;
76202;SDS011;64985;46.364;17.008;2023-09-19T11:44:38;2.88;;;1.20;;
76202;SDS011;64985;46.364;17.008;2023-09-19T11:47:43;3.45;;;1.25;;
76202;SDS011;64985;46.364;17.008;2023-09-19T11:50:48;1.35;;;1.05;;
76202;SDS011;64985;46.364;17.008;2023-09-19T11:53:56;3.05;;;1.10;;
76202;SDS011;64985;46.364;17.008;2023-09-19T11:57:02;2.92;;;1.10;;
76202;SDS011;64985;46.364;17.008;2023-09-19T12:00:06;3.22;;;1.10;;
76202;SDS011;64985;46.364;17.008;2023-09-19T12:03:12;2.17;;;1.00;;
76202;SDS011;64985;46.364;17.008;2023-09-19T12:06:17;1.73;;;1.10;;
76202;SDS011;64985;46.364;17.008;2023-09-19T12:09:19;2.55;;;1.10;;
76202;SDS011;64985;46.364;17.008;2023-09-19T12:12:23;1.45;;;1.08;;
76202;SDS011;64985;46.364;17.008;2023-09-19T12:15:28;2.85;;;1.60;;
76202;SDS011;64985;46.364;17.008;2023-09-19T12:18:36;4.20;;;1.33;;
76202;SDS011;64985;46.364;17.008;2023-09-19T12:21:39;3.65;;;1.10;;
76202;SDS011;64985;46.364;17.008;2023-09-19T12:24:42;3.30;;;1.23;;
76202;SDS011;64985;46.364;17.008;2023-09-19T12:27:47;2.00;;;1.17;;
76202;SDS011;64985;46.364;17.008;2023-09-19T12:30:51;3.05;;;1.20;;
76202;SDS011;64985;46.364;17.008;2023-09-19T12:33:57;2.65;;;1.23;;
76202;SDS011;64985;46.364;17.008;2023-09-19T12:37:07;2.83;;;1.10;;
76202;SDS011;64985;46.364;17.008;2023-09-19T12:40:29;2.90;;;1.30;;
76202;SDS011;64985;46.364;17.008;2023-09-19T12:43:35;4.38;;;1.35;;
76202;SDS011;64985;46.364;17.008;2023-09-19T12:46:39;4.63;;;1.20;;
76202;SDS011;64985;46.364;17.008;2023-09-19T12:53:24;2.25;;;1.00;;
76202;SDS011;64985;46.364;17.008;2023-09-19T12:56:39;2.28;;;1.10;;
76202;SDS011;64985;46.364;17.008;2023-09-19T12:59:46;2.28;;;1.10;;
76202;SDS011;64985;46.364;17.008;2023-09-19T13:03:13;2.83;;;1.33;;
76202;SDS011;64985;46.364;17.008;2023-09-19T13:06:36;2.50;;;1.20;;
76202;SDS011;64985;46.364;17.008;2023-09-19T13:10:01;2.03;;;1.20;;
76202;SDS011;64985;46.364;17.008;2023-09-19T13:13:22;2.60;;;1.10;;
76202;SDS011;64985;46.364;17.008;2023-09-19T13:16:29;2.88;;;1.20;;
76202;SDS011;64985;46.364;17.008;2023-09-19T13:22:44;3.00;;;1.00;;
76202;SDS011;64985;46.364;17.008;2023-09-19T13:25:53;2.20;;;1.15;;
76202;SDS011;64985;46.364;17.008;2023-09-19T13:28:55;1.70;;;0.95;;
76202;SDS011;64985;46.364;17.008;2023-09-19T13:31:57;3.10;;;1.27;;
76202;SDS011;64985;46.364;17.008;2023-09-19T13:35:01;2.72;;;1.20;;
76202;SDS011;64985;46.364;17.008;2023-09-19T13:38:03;1.95;;;1.20;;
76202;SDS011;64985;46.364;17.008;2023-09-19T13:41:06;1.42;;;1.10;;
76202;SDS011;64985;46.364;17.008;2023-09-19T13:44:08;2.75;;;1.20;;
76202;SDS011;64985;46.364;17.008;2023-09-19T13:47:14;2.28;;;1.10;;
76202;SDS011;64985;46.364;17.008;2023-09-19T13:50:18;1.60;;;1.05;;
76202;SDS011;64985;46.364;17.008;2023-09-19T13:53:25;3.42;;;1.30;;
76202;SDS011;64985;46.364;17.008;2023-09-19T13:56:27;2.50;;;1.30;;
76202;SDS011;64985;46.364;17.008;2023-09-19T13:59:30;2.10;;;1.27;;
76202;SDS011;64985;46.364;17.008;2023-09-19T14:02:32;1.83;;;1.20;;
76202;SDS011;64985;46.364;17.008;2023-09-19T14:05:35;1.27;;;1.08;;
76202;SDS011;64985;46.364;17.008;2023-09-19T14:08:37;1.70;;;1.20;;
76202;SDS011;64985;46.364;17.008;2023-09-19T14:11:40;1.52;;;1.08;;
76202;SDS011;64985;46.364;17.008;2023-09-19T14:14:44;1.98;;;1.17;;
76202;SDS011;64985;46.364;17.008;2023-09-19T14:17:46;2.05;;;1.00;;
76202;SDS011;64985;46.364;17.008;2023-09-19T14:20:49;1.77;;;1.05;;
76202;SDS011;64985;46.364;17.008;2023-09-19T14:23:54;1.92;;;1.30;;
76202;SDS011;64985;46.364;17.008;2023-09-19T14:26:57;2.90;;;1.30;;
76202;SDS011;64985;46.364;17.008;2023-09-19T14:30:00;2.20;;;1.10;;
76202;SDS011;64985;46.364;17.008;2023-09-19T14:33:03;2.30;;;1.00;;
76202;SDS011;64985;46.364;17.008;2023-09-19T14:36:07;3.95;;;1.30;;
76202;SDS011;64985;46.364;17.008;2023-09-19T14:39:11;1.83;;;1.30;;
76202;SDS011;64985;46.364;17.008;2023-09-19T14:42:14;5.35;;;1.33;;
76202;SDS011;64985;46.364;17.008;2023-09-19T14:45:19;2.20;;;1.25;;
76202;SDS011;64985;46.364;17.008;2023-09-19T14:48:22;2.22;;;1.10;;
76202;SDS011;64985;46.364;17.008;2023-09-19T14:51:29;3.30;;;1.23;;
76202;SDS011;64985;46.364;17.008;2023-09-19T14:54:31;4.80;;;1.10;;
76202;SDS011;64985;46.364;17.008;2023-09-19T14:57:35;1.95;;;1.05;;
76202;SDS011;64985;46.364;17.008;2023-09-19T15:00:41;4.50;;;1.23;;
76202;SDS011;64985;46.364;17.008;2023-09-19T15:03:47;1.08;;;0.95;;
76202;SDS011;64985;46.364;17.008;2023-09-19T15:06:51;1.73;;;1.08;;
76202;SDS011;64985;46.364;17.008;2023-09-19T15:09:56;2.05;;;1.10;;
76202;SDS011;64985;46.364;17.008;2023-09-19T15:12:59;1.88;;;1.13;;
76202;SDS011;64985;46.364;17.008;2023-09-19T15:16:02;1.73;;;1.10;;
76202;SDS011;64985;46.364;17.008;2023-09-19T15:19:11;1.30;;;0.90;;
76202;SDS011;64985;46.364;17.008;2023-09-19T15:22:13;2.65;;;1.10;;
76202;SDS011;64985;46.364;17.008;2023-09-19T15:25:16;2.25;;;1.10;;
76202;SDS011;64985;46.364;17.008;2023-09-19T15:28:19;1.63;;;1.10;;
76202;SDS011;64985;46.364;17.008;2023-09-19T15:31:24;2.67;;;1.13;;
76202;SDS011;64985;46.364;17.008;2023-09-19T15:34:28;2.42;;;1.20;;
76202;SDS011;64985;46.364;17.008;2023-09-19T15:37:31;2.42;;;1.10;;
76202;SDS011;64985;46.364;17.008;2023-09-19T15:40:34;1.40;;;1.00;;
76202;SDS011;64985;46.364;17.008;2023-09-19T15:43:37;3.33;;;1.13;;
76202;SDS011;64985;46.364;17.008;2023-09-19T15:46:41;88.20;;;42.25;;
76202;SDS011;64985;46.364;17.008;2023-09-19T15:49:44;58.47;;;31.60;;
76202;SDS011;64985;46.364;17.008;2023-09-19T15:52:49;11.93;;;6.47;;
76202;SDS011;64985;46.364;17.008;2023-09-19T15:56:04;24.08;;;10.88;;
76202;SDS011;64985;46.364;17.008;2023-09-19T16:02:11;12.23;;;4.68;;
76202;SDS011;64985;46.364;17.008;2023-09-19T16:05:14;16.50;;;4.93;;
76202;SDS011;64985;46.364;17.008;2023-09-19T16:08:17;29.70;;;6.20;;
76202;SDS011;64985;46.364;17.008;2023-09-19T16:11:20;30.42;;;7.78;;
76202;SDS011;64985;46.364;17.008;2023-09-19T16:14:23;37.05;;;8.25;;
76202;SDS011;64985;46.364;17.008;2023-09-19T16:17:26;32.28;;;8.20;;
76202;SDS011;64985;46.364;17.008;2023-09-19T16:20:30;4.40;;;2.20;;
76202;SDS011;64985;46.364;17.008;2023-09-19T16:23:35;8.00;;;1.70;;
76202;SDS011;64985;46.364;17.008;2023-09-19T16:26:38;4.63;;;1.60;;
76202;SDS011;64985;46.364;17.008;2023-09-19T16:29:40;5.50;;;1.92;;
76202;SDS011;64985;46.364;17.008;2023-09-19T16:32:43;45.50;;;10.02;;
76202;SDS011;64985;46.364;17.008;2023-09-19T16:35:45;23.88;;;6.05;;
76202;SDS011;64985;46.364;17.008;2023-09-19T16:38:48;13.10;;;3.92;;
76202;SDS011;64985;46.364;17.008;2023-09-19T16:41:51;9.52;;;2.70;;
76202;SDS011;64985;46.364;17.008;2023-09-19T16:44:55;9.02;;;2.88;;
76202;SDS011;64985;46.364;17.008;2023-09-19T16:47:57;8.40;;;2.45;;
76202;SDS011;64985;46.364;17.008;2023-09-19T16:51:04;4.80;;;1.63;;
76202;SDS011;64985;46.364;17.008;2023-09-19T16:54:09;6.88;;;1.92;;
76202;SDS011;64985;46.364;17.008;2023-09-19T16:57:12;5.97;;;1.90;;
76202;SDS011;64985;46.364;17.008;2023-09-19T17:00:16;5.57;;;1.92;;
76202;SDS011;64985;46.364;17.008;2023-09-19T17:03:21;3.67;;;1.73;;
76202;SDS011;64985;46.364;17.008;2023-09-19T17:06:27;4.68;;;1.70;;
76202;SDS011;64985;46.364;17.008;2023-09-19T17:09:30;3.45;;;1.60;;
76202;SDS011;64985;46.364;17.008;2023-09-19T17:12:34;2.92;;;1.83;;
76202;SDS011;64985;46.364;17.008;2023-09-19T17:15:37;3.85;;;1.73;;
76202;SDS011;64985;46.364;17.008;2023-09-19T17:18:41;3.08;;;1.60;;
76202;SDS011;64985;46.364;17.008;2023-09-19T17:21:45;6.80;;;1.90;;
76202;SDS011;64985;46.364;17.008;2023-09-19T17:24:48;4.72;;;1.80;;
76202;SDS011;64985;46.364;17.008;2023-09-19T17:27:52;4.53;;;2.00;;
76202;SDS011;64985;46.364;17.008;2023-09-19T17:30:57;5.43;;;1.90;;
76202;SDS011;64985;46.364;17.008;2023-09-19T17:34:02;5.00;;;1.80;;
76202;SDS011;64985;46.364;17.008;2023-09-19T17:37:06;5.82;;;2.20;;
76202;SDS011;64985;46.364;17.008;2023-09-19T17:40:11;3.30;;;1.70;;
76202;SDS011;64985;46.364;17.008;2023-09-19T17:43:17;5.70;;;2.10;;
76202;SDS011;64985;46.364;17.008;2023-09-19T17:46:21;5.05;;;2.10;;
76202;SDS011;64985;46.364;17.008;2023-09-19T17:49:30;8.23;;;2.10;;
76202;SDS011;64985;46.364;17.008;2023-09-19T17:52:34;4.57;;;2.10;;
76202;SDS011;64985;46.364;17.008;2023-09-19T17:55:39;4.95;;;2.10;;
76202;SDS011;64985;46.364;17.008;2023-09-19T17:58:46;2.58;;;1.85;;
76202;SDS011;64985;46.364;17.008;2023-09-19T18:02:09;3.58;;;1.90;;
76202;SDS011;64985;46.364;17.008;2023-09-19T18:05:17;2.88;;;2.10;;
76202;SDS011;64985;46.364;17.008;2023-09-19T18:08:24;5.13;;;2.15;;
76202;SDS011;64985;46.364;17.008;2023-09-19T18:11:34;6.00;;;2.15;;
76202;SDS011;64985;46.364;17.008;2023-09-19T18:14:44;4.57;;;1.83;;
76202;SDS011;64985;46.364;17.008;2023-09-19T18:17:50;3.63;;;1.97;;
76202;SDS011;64985;46.364;17.008;2023-09-19T18:21:00;4.03;;;2.10;;
76202;SDS011;64985;46.364;17.008;2023-09-19T18:24:07;3.30;;;1.90;;
76202;SDS011;64985;46.364;17.008;2023-09-19T18:27:14;6.13;;;2.00;;
76202;SDS011;64985;46.364;17.008;2023-09-19T18:30:17;2.67;;;1.90;;
76202;SDS011;64985;46.364;17.008;2023-09-19T18:33:21;4.10;;;2.00;;
76202;SDS011;64985;46.364;17.008;2023-09-19T18:36:24;4.47;;;1.88;;
76202;SDS011;64985;46.364;17.008;2023-09-19T18:39:32;5.25;;;1.90;;
76202;SDS011;64985;46.364;17.008;2023-09-19T18:42:36;6.65;;;2.13;;